sensor_id;sensor_type;location;lat;lon;timestamp;P1;durP1;ratioP1;P2;durP2;ratioP2
24325;SDS011;12448;45.532;5.290;2023-03-04T00:00:15;89.00;;;46.08;;
24325;SDS011;12448;45.532;5.290;2023-03-04T00:02:41;92.10;;;45.58;;
24325;SDS011;12448;45.532;5.290;2023-03-04T00:05:07;85.85;;;44.38;;
24325;SDS011;12448;45.532;5.290;2023-03-04T00:07:36;87.35;;;42.72;;
24325;SDS011;12448;45.532;5.290;2023-03-04T00:10:05;95.95;;;45.38;;
24325;SDS011;12448;45.532;5.290;2023-03-04T00:12:31;90.53;;;45.78;;
24325;SDS011;12448;45.532;5.290;2023-03-04T00:14:57;92.82;;;46.00;;
24325;SDS011;12448;45.532;5.290;2023-03-04T00:17:23;92.25;;;44.75;;
24325;SDS011;12448;45.532;5.290;2023-03-04T00:19:53;90.15;;;46.38;;
24325;SDS011;12448;45.532;5.290;2023-03-04T00:22:22;95.25;;;47.28;;
24325;SDS011;12448;45.532;5.290;2023-03-04T00:24:49;96.78;;;48.78;;
24325;SDS011;12448;45.532;5.290;2023-03-04T00:27:15;98.45;;;51.40;;
24325;SDS011;12448;45.532;5.290;2023-03-04T00:29:41;106.35;;;50.22;;
24325;SDS011;12448;45.532;5.290;2023-03-04T00:32:09;119.50;;;54.38;;
24325;SDS011;12448;45.532;5.290;2023-03-04T00:34:35;114.35;;;55.08;;
24325;SDS011;12448;45.532;5.290;2023-03-04T00:37:01;119.90;;;55.28;;
24325;SDS011;12448;45.532;5.290;2023-03-04T00:39:28;110.97;;;54.45;;
24325;SDS011;12448;45.532;5.290;2023-03-04T00:41:56;105.95;;;53.60;;
24325;SDS011;12448;45.532;5.290;2023-03-04T00:44:22;107.25;;;50.25;;
24325;SDS011;12448;45.532;5.290;2023-03-04T00:46:48;103.35;;;51.83;;
24325;SDS011;12448;45.532;5.290;2023-03-04T00:49:14;103.45;;;50.15;;
24325;SDS011;12448;45.532;5.290;2023-03-04T00:51:39;97.97;;;48.28;;
24325;SDS011;12448;45.532;5.290;2023-03-04T00:54:05;103.68;;;50.20;;
24325;SDS011;12448;45.532;5.290;2023-03-04T00:56:31;107.20;;;51.45;;
24325;SDS011;12448;45.532;5.290;2023-03-04T00:58:57;103.45;;;48.38;;
24325;SDS011;12448;45.532;5.290;2023-03-04T01:01:23;99.40;;;48.50;;
24325;SDS011;12448;45.532;5.290;2023-03-04T01:03:49;95.68;;;46.60;;
24325;SDS011;12448;45.532;5.290;2023-03-04T01:06:15;96.88;;;46.70;;
24325;SDS011;12448;45.532;5.290;2023-03-04T01:08:42;89.40;;;44.70;;
24325;SDS011;12448;45.532;5.290;2023-03-04T01:11:07;95.70;;;47.47;;
24325;SDS011;12448;45.532;5.290;2023-03-04T01:13:33;101.40;;;48.00;;
24325;SDS011;12448;45.532;5.290;2023-03-04T01:15:59;106.05;;;49.33;;
24325;SDS011;12448;45.532;5.290;2023-03-04T01:18:26;98.93;;;47.00;;
24325;SDS011;12448;45.532;5.290;2023-03-04T01:20:52;96.32;;;47.55;;
24325;SDS011;12448;45.532;5.290;2023-03-04T01:23:18;96.97;;;45.50;;
24325;SDS011;12448;45.532;5.290;2023-03-04T01:25:44;92.13;;;47.05;;
24325;SDS011;12448;45.532;5.290;2023-03-04T01:28:13;86.72;;;43.85;;
24325;SDS011;12448;45.532;5.290;2023-03-04T01:30:47;86.97;;;44.28;;
24325;SDS011;12448;45.532;5.290;2023-03-04T01:33:13;87.10;;;44.75;;
24325;SDS011;12448;45.532;5.290;2023-03-04T01:35:39;86.80;;;43.72;;
24325;SDS011;12448;45.532;5.290;2023-03-04T01:38:08;91.13;;;44.15;;
24325;SDS011;12448;45.532;5.290;2023-03-04T01:40:34;87.70;;;46.17;;
24325;SDS011;12448;45.532;5.290;2023-03-04T01:43:02;95.18;;;46.33;;
24325;SDS011;12448;45.532;5.290;2023-03-04T01:45:31;99.75;;;46.60;;
24325;SDS011;12448;45.532;5.290;2023-03-04T01:47:59;91.95;;;46.28;;
24325;SDS011;12448;45.532;5.290;2023-03-04T01:50:26;87.78;;;45.08;;
24325;SDS011;12448;45.532;5.290;2023-03-04T01:52:57;95.22;;;46.08;;
24325;SDS011;12448;45.532;5.290;2023-03-04T01:55:24;90.70;;;45.22;;
24325;SDS011;12448;45.532;5.290;2023-03-04T01:57:53;90.82;;;45.08;;
24325;SDS011;12448;45.532;5.290;2023-03-04T02:00:29;91.47;;;45.15;;
24325;SDS011;12448;45.532;5.290;2023-03-04T02:03:01;92.35;;;45.60;;
24325;SDS011;12448;45.532;5.290;2023-03-04T02:05:34;93.55;;;45.95;;
24325;SDS011;12448;45.532;5.290;2023-03-04T02:08:02;85.70;;;45.25;;
24325;SDS011;12448;45.532;5.290;2023-03-04T02:10:29;91.75;;;46.22;;
24325;SDS011;12448;45.532;5.290;2023-03-04T02:12:56;88.90;;;46.22;;
24325;SDS011;12448;45.532;5.290;2023-03-04T02:15:25;93.93;;;45.97;;
24325;SDS011;12448;45.532;5.290;2023-03-04T02:17:51;93.13;;;46.70;;
24325;SDS011;12448;45.532;5.290;2023-03-04T02:23:07;94.57;;;47.70;;
24325;SDS011;12448;45.532;5.290;2023-03-04T02:25:41;93.57;;;47.85;;
24325;SDS011;12448;45.532;5.290;2023-03-04T02:28:13;86.40;;;45.33;;
24325;SDS011;12448;45.532;5.290;2023-03-04T02:30:39;93.22;;;46.47;;
24325;SDS011;12448;45.532;5.290;2023-03-04T02:33:05;95.90;;;47.90;;
24325;SDS011;12448;45.532;5.290;2023-03-04T02:35:38;89.00;;;47.88;;
24325;SDS011;12448;45.532;5.290;2023-03-04T02:38:08;95.43;;;47.03;;
24325;SDS011;12448;45.532;5.290;2023-03-04T02:40:35;89.57;;;46.65;;
24325;SDS011;12448;45.532;5.290;2023-03-04T02:43:12;91.43;;;47.33;;
24325;SDS011;12448;45.532;5.290;2023-03-04T02:48:08;97.38;;;47.60;;
24325;SDS011;12448;45.532;5.290;2023-03-04T02:50:42;88.10;;;46.15;;
24325;SDS011;12448;45.532;5.290;2023-03-04T02:53:14;91.70;;;47.97;;
24325;SDS011;12448;45.532;5.290;2023-03-04T02:55:40;93.45;;;46.97;;
24325;SDS011;12448;45.532;5.290;2023-03-04T02:58:10;92.50;;;47.45;;
24325;SDS011;12448;45.532;5.290;2023-03-04T03:00:37;99.45;;;48.30;;
24325;SDS011;12448;45.532;5.290;2023-03-04T03:03:16;94.05;;;46.38;;
24325;SDS011;12448;45.532;5.290;2023-03-04T03:05:42;87.28;;;46.08;;
24325;SDS011;12448;45.532;5.290;2023-03-04T03:08:11;89.93;;;44.90;;
24325;SDS011;12448;45.532;5.290;2023-03-04T03:10:37;94.43;;;46.92;;
24325;SDS011;12448;45.532;5.290;2023-03-04T03:13:11;88.97;;;46.20;;
24325;SDS011;12448;45.532;5.290;2023-03-04T03:15:39;94.60;;;47.38;;
24325;SDS011;12448;45.532;5.290;2023-03-04T03:18:09;111.30;;;60.88;;
24325;SDS011;12448;45.532;5.290;2023-03-04T03:20:38;97.55;;;48.72;;
24325;SDS011;12448;45.532;5.290;2023-03-04T03:23:04;94.13;;;46.08;;
24325;SDS011;12448;45.532;5.290;2023-03-04T03:25:33;93.43;;;48.47;;
24325;SDS011;12448;45.532;5.290;2023-03-04T03:28:02;90.38;;;46.08;;
24325;SDS011;12448;45.532;5.290;2023-03-04T03:30:31;98.13;;;48.60;;
24325;SDS011;12448;45.532;5.290;2023-03-04T03:33:03;89.93;;;48.97;;
24325;SDS011;12448;45.532;5.290;2023-03-04T03:35:32;93.93;;;48.90;;
24325;SDS011;12448;45.532;5.290;2023-03-04T03:37:58;89.93;;;47.63;;
24325;SDS011;12448;45.532;5.290;2023-03-04T03:40:24;94.63;;;49.75;;
24325;SDS011;12448;45.532;5.290;2023-03-04T03:42:50;95.78;;;47.80;;
24325;SDS011;12448;45.532;5.290;2023-03-04T03:45:16;95.55;;;47.95;;
24325;SDS011;12448;45.532;5.290;2023-03-04T03:47:42;98.03;;;49.08;;
24325;SDS011;12448;45.532;5.290;2023-03-04T03:50:11;99.35;;;47.35;;
24325;SDS011;12448;45.532;5.290;2023-03-04T03:52:40;102.00;;;50.00;;
24325;SDS011;12448;45.532;5.290;2023-03-04T03:55:09;96.40;;;47.17;;
24325;SDS011;12448;45.532;5.290;2023-03-04T03:57:38;96.53;;;49.78;;
24325;SDS011;12448;45.532;5.290;2023-03-04T04:00:04;100.82;;;49.70;;
24325;SDS011;12448;45.532;5.290;2023-03-04T04:02:31;98.97;;;48.83;;
24325;SDS011;12448;45.532;5.290;2023-03-04T04:04:57;96.93;;;48.65;;
24325;SDS011;12448;45.532;5.290;2023-03-04T04:07:23;96.85;;;47.95;;
24325;SDS011;12448;45.532;5.290;2023-03-04T04:09:48;97.35;;;47.65;;
24325;SDS011;12448;45.532;5.290;2023-03-04T04:12:17;98.95;;;48.97;;
24325;SDS011;12448;45.532;5.290;2023-03-04T04:14:46;96.53;;;48.67;;
24325;SDS011;12448;45.532;5.290;2023-03-04T04:17:15;99.93;;;49.88;;
24325;SDS011;12448;45.532;5.290;2023-03-04T04:19:46;102.85;;;51.42;;
24325;SDS011;12448;45.532;5.290;2023-03-04T04:22:13;97.63;;;49.38;;
24325;SDS011;12448;45.532;5.290;2023-03-04T04:24:41;94.28;;;48.75;;
24325;SDS011;12448;45.532;5.290;2023-03-04T04:27:19;96.30;;;49.33;;
24325;SDS011;12448;45.532;5.290;2023-03-04T04:29:47;100.22;;;49.90;;
24325;SDS011;12448;45.532;5.290;2023-03-04T04:32:13;102.00;;;48.67;;
24325;SDS011;12448;45.532;5.290;2023-03-04T04:34:39;97.63;;;48.47;;
24325;SDS011;12448;45.532;5.290;2023-03-04T04:37:04;97.07;;;48.53;;
24325;SDS011;12448;45.532;5.290;2023-03-04T04:39:33;101.38;;;50.08;;
24325;SDS011;12448;45.532;5.290;2023-03-04T04:41:59;100.72;;;50.75;;
24325;SDS011;12448;45.532;5.290;2023-03-04T04:44:25;96.40;;;48.55;;
24325;SDS011;12448;45.532;5.290;2023-03-04T04:46:51;105.35;;;52.20;;
24325;SDS011;12448;45.532;5.290;2023-03-04T04:49:23;110.80;;;52.20;;
24325;SDS011;12448;45.532;5.290;2023-03-04T04:51:49;103.45;;;51.75;;
24325;SDS011;12448;45.532;5.290;2023-03-04T04:54:17;101.03;;;49.88;;
24325;SDS011;12448;45.532;5.290;2023-03-04T04:56:43;107.05;;;51.30;;
24325;SDS011;12448;45.532;5.290;2023-03-04T04:59:09;106.00;;;51.42;;
24325;SDS011;12448;45.532;5.290;2023-03-04T05:01:37;103.13;;;51.45;;
24325;SDS011;12448;45.532;5.290;2023-03-04T05:04:06;96.35;;;49.35;;
24325;SDS011;12448;45.532;5.290;2023-03-04T05:06:35;101.43;;;50.60;;
24325;SDS011;12448;45.532;5.290;2023-03-04T05:09:03;102.95;;;52.88;;
24325;SDS011;12448;45.532;5.290;2023-03-04T05:11:30;99.93;;;50.97;;
24325;SDS011;12448;45.532;5.290;2023-03-04T05:13:56;99.22;;;51.40;;
24325;SDS011;12448;45.532;5.290;2023-03-04T05:16:22;104.40;;;52.38;;
24325;SDS011;12448;45.532;5.290;2023-03-04T05:18:48;99.75;;;50.08;;
24325;SDS011;12448;45.532;5.290;2023-03-04T05:21:14;104.05;;;51.03;;
24325;SDS011;12448;45.532;5.290;2023-03-04T05:23:40;102.65;;;52.25;;
24325;SDS011;12448;45.532;5.290;2023-03-04T05:26:08;104.35;;;52.72;;
24325;SDS011;12448;45.532;5.290;2023-03-04T05:28:40;101.30;;;51.53;;
24325;SDS011;12448;45.532;5.290;2023-03-04T05:31:06;103.38;;;52.20;;
24325;SDS011;12448;45.532;5.290;2023-03-04T05:33:32;102.50;;;51.58;;
24325;SDS011;12448;45.532;5.290;2023-03-04T05:36:07;104.20;;;51.88;;
24325;SDS011;12448;45.532;5.290;2023-03-04T05:38:36;101.00;;;49.55;;
24325;SDS011;12448;45.532;5.290;2023-03-04T05:41:05;103.20;;;51.28;;
24325;SDS011;12448;45.532;5.290;2023-03-04T05:43:33;105.00;;;51.63;;
24325;SDS011;12448;45.532;5.290;2023-03-04T05:46:02;106.32;;;51.72;;
24325;SDS011;12448;45.532;5.290;2023-03-04T05:48:28;112.05;;;54.55;;
24325;SDS011;12448;45.532;5.290;2023-03-04T05:50:55;106.30;;;51.78;;
24325;SDS011;12448;45.532;5.290;2023-03-04T05:53:21;103.93;;;51.97;;
24325;SDS011;12448;45.532;5.290;2023-03-04T05:55:48;110.80;;;53.53;;
24325;SDS011;12448;45.532;5.290;2023-03-04T05:58:14;103.95;;;50.97;;
24325;SDS011;12448;45.532;5.290;2023-03-04T06:00:40;105.32;;;52.17;;
24325;SDS011;12448;45.532;5.290;2023-03-04T06:03:07;102.43;;;50.13;;
24325;SDS011;12448;45.532;5.290;2023-03-04T06:05:45;102.25;;;50.25;;
24325;SDS011;12448;45.532;5.290;2023-03-04T06:08:18;101.43;;;50.83;;
24325;SDS011;12448;45.532;5.290;2023-03-04T06:10:44;107.07;;;51.08;;
24325;SDS011;12448;45.532;5.290;2023-03-04T06:13:10;104.90;;;52.40;;
24325;SDS011;12448;45.532;5.290;2023-03-04T06:15:36;100.80;;;51.05;;
24325;SDS011;12448;45.532;5.290;2023-03-04T06:18:13;102.15;;;51.65;;
24325;SDS011;12448;45.532;5.290;2023-03-04T06:20:41;106.53;;;51.92;;
24325;SDS011;12448;45.532;5.290;2023-03-04T06:23:09;104.75;;;53.92;;
24325;SDS011;12448;45.532;5.290;2023-03-04T06:25:35;106.30;;;51.45;;
24325;SDS011;12448;45.532;5.290;2023-03-04T06:28:01;107.05;;;53.22;;
24325;SDS011;12448;45.532;5.290;2023-03-04T06:30:27;106.57;;;52.40;;
24325;SDS011;12448;45.532;5.290;2023-03-04T06:32:52;106.18;;;52.75;;
24325;SDS011;12448;45.532;5.290;2023-03-04T06:35:21;105.22;;;50.72;;
24325;SDS011;12448;45.532;5.290;2023-03-04T06:37:50;111.45;;;51.50;;
24325;SDS011;12448;45.532;5.290;2023-03-04T06:40:19;99.57;;;50.28;;
24325;SDS011;12448;45.532;5.290;2023-03-04T06:42:45;107.30;;;51.55;;
24325;SDS011;12448;45.532;5.290;2023-03-04T06:45:14;103.90;;;50.40;;
24325;SDS011;12448;45.532;5.290;2023-03-04T06:47:43;105.63;;;53.58;;
24325;SDS011;12448;45.532;5.290;2023-03-04T06:50:26;255.10;;;112.60;;
24325;SDS011;12448;45.532;5.290;2023-03-04T06:53:17;566.35;;;206.02;;
24325;SDS011;12448;45.532;5.290;2023-03-04T06:55:42;273.20;;;110.18;;
24325;SDS011;12448;45.532;5.290;2023-03-04T06:58:14;132.45;;;64.28;;
24325;SDS011;12448;45.532;5.290;2023-03-04T07:00:55;114.60;;;57.67;;
24325;SDS011;12448;45.532;5.290;2023-03-04T07:03:26;106.05;;;53.78;;
24325;SDS011;12448;45.532;5.290;2023-03-04T07:05:55;109.65;;;56.95;;
24325;SDS011;12448;45.532;5.290;2023-03-04T07:08:23;110.20;;;53.65;;
24325;SDS011;12448;45.532;5.290;2023-03-04T07:10:52;117.65;;;57.15;;
24325;SDS011;12448;45.532;5.290;2023-03-04T07:13:24;115.82;;;57.17;;
24325;SDS011;12448;45.532;5.290;2023-03-04T07:15:50;112.00;;;54.15;;
24325;SDS011;12448;45.532;5.290;2023-03-04T07:18:48;108.38;;;52.55;;
24325;SDS011;12448;45.532;5.290;2023-03-04T07:21:40;111.35;;;55.20;;
24325;SDS011;12448;45.532;5.290;2023-03-04T07:24:14;129.18;;;61.95;;
24325;SDS011;12448;45.532;5.290;2023-03-04T07:26:40;187.20;;;84.85;;
24325;SDS011;12448;45.532;5.290;2023-03-04T07:29:13;253.05;;;116.35;;
24325;SDS011;12448;45.532;5.290;2023-03-04T07:31:45;184.93;;;89.95;;
24325;SDS011;12448;45.532;5.290;2023-03-04T07:34:46;110.13;;;53.35;;
24325;SDS011;12448;45.532;5.290;2023-03-04T07:37:05;104.82;;;51.88;;
24325;SDS011;12448;45.532;5.290;2023-03-04T07:39:31;105.88;;;53.30;;
24325;SDS011;12448;45.532;5.290;2023-03-04T07:42:09;142.80;;;76.10;;
24325;SDS011;12448;45.532;5.290;2023-03-04T07:44:44;124.10;;;63.88;;
24325;SDS011;12448;45.532;5.290;2023-03-04T07:47:18;121.20;;;62.75;;
24325;SDS011;12448;45.532;5.290;2023-03-04T07:49:50;134.18;;;72.18;;
24325;SDS011;12448;45.532;5.290;2023-03-04T07:52:20;115.57;;;55.33;;
24325;SDS011;12448;45.532;5.290;2023-03-04T07:54:49;110.75;;;54.53;;
24325;SDS011;12448;45.532;5.290;2023-03-04T07:57:15;114.25;;;55.05;;
24325;SDS011;12448;45.532;5.290;2023-03-04T07:59:44;106.45;;;54.47;;
24325;SDS011;12448;45.532;5.290;2023-03-04T08:02:09;102.93;;;54.97;;
24325;SDS011;12448;45.532;5.290;2023-03-04T08:04:42;116.97;;;56.47;;
24325;SDS011;12448;45.532;5.290;2023-03-04T08:07:08;102.95;;;54.47;;
24325;SDS011;12448;45.532;5.290;2023-03-04T08:09:34;109.10;;;54.05;;
24325;SDS011;12448;45.532;5.290;2023-03-04T08:12:09;112.68;;;56.17;;
24325;SDS011;12448;45.532;5.290;2023-03-04T08:14:43;109.18;;;56.65;;
24325;SDS011;12448;45.532;5.290;2023-03-04T08:17:27;106.00;;;52.40;;
24325;SDS011;12448;45.532;5.290;2023-03-04T08:20:01;107.78;;;54.47;;
24325;SDS011;12448;45.532;5.290;2023-03-04T08:22:32;107.20;;;53.17;;
24325;SDS011;12448;45.532;5.290;2023-03-04T08:25:01;113.80;;;58.63;;
24325;SDS011;12448;45.532;5.290;2023-03-04T08:27:32;107.00;;;55.35;;
24325;SDS011;12448;45.532;5.290;2023-03-04T08:30:02;106.40;;;51.33;;
24325;SDS011;12448;45.532;5.290;2023-03-04T08:32:31;106.07;;;52.90;;
24325;SDS011;12448;45.532;5.290;2023-03-04T08:34:57;115.38;;;57.40;;
24325;SDS011;12448;45.532;5.290;2023-03-04T08:37:26;111.90;;;53.80;;
24325;SDS011;12448;45.532;5.290;2023-03-04T08:39:55;110.90;;;55.20;;
24325;SDS011;12448;45.532;5.290;2023-03-04T08:42:21;113.85;;;62.10;;
24325;SDS011;12448;45.532;5.290;2023-03-04T08:44:51;114.78;;;54.80;;
24325;SDS011;12448;45.532;5.290;2023-03-04T08:47:16;112.70;;;54.90;;
24325;SDS011;12448;45.532;5.290;2023-03-04T08:49:42;108.28;;;55.90;;
24325;SDS011;12448;45.532;5.290;2023-03-04T08:52:11;114.97;;;59.25;;
24325;SDS011;12448;45.532;5.290;2023-03-04T08:54:40;101.32;;;52.88;;
24325;SDS011;12448;45.532;5.290;2023-03-04T08:57:06;105.47;;;52.83;;
24325;SDS011;12448;45.532;5.290;2023-03-04T08:59:41;112.07;;;59.63;;
24325;SDS011;12448;45.532;5.290;2023-03-04T09:02:12;120.30;;;63.35;;
24325;SDS011;12448;45.532;5.290;2023-03-04T09:04:41;108.22;;;57.38;;
24325;SDS011;12448;45.532;5.290;2023-03-04T09:07:12;107.70;;;56.10;;
24325;SDS011;12448;45.532;5.290;2023-03-04T09:10:10;99.40;;;52.75;;
24325;SDS011;12448;45.532;5.290;2023-03-04T09:12:36;108.15;;;49.38;;
24325;SDS011;12448;45.532;5.290;2023-03-04T09:15:05;99.75;;;50.90;;
24325;SDS011;12448;45.532;5.290;2023-03-04T09:17:31;107.75;;;52.53;;
24325;SDS011;12448;45.532;5.290;2023-03-04T09:20:00;99.85;;;51.10;;
24325;SDS011;12448;45.532;5.290;2023-03-04T09:22:36;95.50;;;51.60;;
24325;SDS011;12448;45.532;5.290;2023-03-04T09:25:02;97.13;;;50.85;;
24325;SDS011;12448;45.532;5.290;2023-03-04T09:27:29;105.90;;;52.55;;
24325;SDS011;12448;45.532;5.290;2023-03-04T09:30:14;107.25;;;53.58;;
24325;SDS011;12448;45.532;5.290;2023-03-04T09:32:49;101.82;;;50.65;;
24325;SDS011;12448;45.532;5.290;2023-03-04T09:35:15;104.75;;;50.88;;
24325;SDS011;12448;45.532;5.290;2023-03-04T09:37:40;104.25;;;49.97;;
24325;SDS011;12448;45.532;5.290;2023-03-04T09:40:07;104.18;;;54.17;;
24325;SDS011;12448;45.532;5.290;2023-03-04T09:45:40;104.30;;;53.95;;
24325;SDS011;12448;45.532;5.290;2023-03-04T09:48:19;98.07;;;48.45;;
24325;SDS011;12448;45.532;5.290;2023-03-04T09:50:57;96.05;;;49.92;;
24325;SDS011;12448;45.532;5.290;2023-03-04T09:56:34;100.30;;;52.60;;
24325;SDS011;12448;45.532;5.290;2023-03-04T09:59:04;103.40;;;53.03;;
24325;SDS011;12448;45.532;5.290;2023-03-04T10:04:12;146.40;;;74.88;;
24325;SDS011;12448;45.532;5.290;2023-03-04T10:06:42;95.10;;;50.20;;
24325;SDS011;12448;45.532;5.290;2023-03-04T10:09:16;100.40;;;50.80;;
24325;SDS011;12448;45.532;5.290;2023-03-04T10:14:47;105.93;;;52.85;;
24325;SDS011;12448;45.532;5.290;2023-03-04T10:17:40;100.72;;;50.10;;
24325;SDS011;12448;45.532;5.290;2023-03-04T10:23:18;94.63;;;48.35;;
24325;SDS011;12448;45.532;5.290;2023-03-04T10:25:46;98.60;;;48.65;;
24325;SDS011;12448;45.532;5.290;2023-03-04T10:28:18;93.68;;;50.53;;
24325;SDS011;12448;45.532;5.290;2023-03-04T10:30:58;98.38;;;50.17;;
24325;SDS011;12448;45.532;5.290;2023-03-04T10:33:30;92.60;;;48.92;;
24325;SDS011;12448;45.532;5.290;2023-03-04T10:38:39;101.05;;;50.00;;
24325;SDS011;12448;45.532;5.290;2023-03-04T10:41:13;92.38;;;48.38;;
24325;SDS011;12448;45.532;5.290;2023-03-04T10:43:40;96.60;;;49.95;;
24325;SDS011;12448;45.532;5.290;2023-03-04T10:46:09;95.90;;;50.97;;
24325;SDS011;12448;45.532;5.290;2023-03-04T10:48:36;99.75;;;49.35;;
24325;SDS011;12448;45.532;5.290;2023-03-04T10:56:58;100.78;;;50.70;;
24325;SDS011;12448;45.532;5.290;2023-03-04T10:59:39;90.72;;;47.38;;
24325;SDS011;12448;45.532;5.290;2023-03-04T11:02:18;101.47;;;49.38;;
24325;SDS011;12448;45.532;5.290;2023-03-04T11:04:51;98.95;;;51.85;;
24325;SDS011;12448;45.532;5.290;2023-03-04T11:07:20;97.00;;;50.08;;
24325;SDS011;12448;45.532;5.290;2023-03-04T11:09:47;104.28;;;51.65;;
24325;SDS011;12448;45.532;5.290;2023-03-04T11:12:14;99.90;;;51.67;;
24325;SDS011;12448;45.532;5.290;2023-03-04T11:14:44;197.70;;;89.68;;
24325;SDS011;12448;45.532;5.290;2023-03-04T11:17:44;100.93;;;50.35;;
24325;SDS011;12448;45.532;5.290;2023-03-04T11:20:24;96.55;;;49.90;;
24325;SDS011;12448;45.532;5.290;2023-03-04T11:22:53;101.38;;;52.90;;
24325;SDS011;12448;45.532;5.290;2023-03-04T11:28:01;100.53;;;51.83;;
24325;SDS011;12448;45.532;5.290;2023-03-04T11:30:34;105.15;;;53.10;;
24325;SDS011;12448;45.532;5.290;2023-03-04T11:33:42;100.45;;;51.10;;
24325;SDS011;12448;45.532;5.290;2023-03-04T11:36:28;101.32;;;52.42;;
24325;SDS011;12448;45.532;5.290;2023-03-04T11:39:00;104.70;;;52.42;;
24325;SDS011;12448;45.532;5.290;2023-03-04T11:41:31;105.18;;;52.33;;
24325;SDS011;12448;45.532;5.290;2023-03-04T11:44:00;106.35;;;53.30;;
24325;SDS011;12448;45.532;5.290;2023-03-04T12:03:50;102.43;;;49.55;;
24325;SDS011;12448;45.532;5.290;2023-03-04T12:12:19;98.30;;;49.42;;
24325;SDS011;12448;45.532;5.290;2023-03-04T12:20:27;92.22;;;46.53;;
24325;SDS011;12448;45.532;5.290;2023-03-04T12:31:49;93.82;;;47.28;;
24325;SDS011;12448;45.532;5.290;2023-03-04T12:44:00;85.80;;;43.70;;
24325;SDS011;12448;45.532;5.290;2023-03-04T12:49:25;82.25;;;42.10;;
24325;SDS011;12448;45.532;5.290;2023-03-04T12:52:04;80.93;;;44.35;;
24325;SDS011;12448;45.532;5.290;2023-03-04T12:54:40;82.30;;;41.35;;
24325;SDS011;12448;45.532;5.290;2023-03-04T12:57:19;95.38;;;47.97;;
24325;SDS011;12448;45.532;5.290;2023-03-04T12:59:53;87.25;;;47.47;;
24325;SDS011;12448;45.532;5.290;2023-03-04T13:02:46;95.88;;;47.88;;
24325;SDS011;12448;45.532;5.290;2023-03-04T13:10:48;87.93;;;44.78;;
24325;SDS011;12448;45.532;5.290;2023-03-04T13:16:05;81.35;;;41.47;;
24325;SDS011;12448;45.532;5.290;2023-03-04T13:18:43;83.27;;;44.03;;
24325;SDS011;12448;45.532;5.290;2023-03-04T13:23:38;85.18;;;44.63;;
24325;SDS011;12448;45.532;5.290;2023-03-04T13:26:15;86.75;;;44.33;;
24325;SDS011;12448;45.532;5.290;2023-03-04T13:28:51;89.50;;;45.97;;
24325;SDS011;12448;45.532;5.290;2023-03-04T13:31:43;87.00;;;44.78;;
24325;SDS011;12448;45.532;5.290;2023-03-04T13:37:33;146.68;;;67.43;;
24325;SDS011;12448;45.532;5.290;2023-03-04T13:42:47;78.65;;;41.35;;
24325;SDS011;12448;45.532;5.290;2023-03-04T13:45:28;85.00;;;41.65;;
24325;SDS011;12448;45.532;5.290;2023-03-04T13:47:54;78.95;;;42.30;;
24325;SDS011;12448;45.532;5.290;2023-03-04T13:50:26;73.15;;;39.42;;
24325;SDS011;12448;45.532;5.290;2023-03-04T13:53:18;77.35;;;41.20;;
24325;SDS011;12448;45.532;5.290;2023-03-04T13:59:19;77.68;;;40.28;;
24325;SDS011;12448;45.532;5.290;2023-03-04T14:06:47;80.22;;;41.33;;
24325;SDS011;12448;45.532;5.290;2023-03-04T14:09:15;82.93;;;40.85;;
24325;SDS011;12448;45.532;5.290;2023-03-04T14:11:45;79.78;;;42.72;;
24325;SDS011;12448;45.532;5.290;2023-03-04T14:14:13;81.85;;;42.97;;
24325;SDS011;12448;45.532;5.290;2023-03-04T14:16:49;74.82;;;40.45;;
24325;SDS011;12448;45.532;5.290;2023-03-04T14:19:27;89.78;;;40.90;;
24325;SDS011;12448;45.532;5.290;2023-03-04T14:21:54;82.25;;;43.20;;
24325;SDS011;12448;45.532;5.290;2023-03-04T14:24:21;81.97;;;43.13;;
24325;SDS011;12448;45.532;5.290;2023-03-04T14:26:47;75.82;;;41.60;;
24325;SDS011;12448;45.532;5.290;2023-03-04T14:29:31;82.82;;;43.25;;
24325;SDS011;12448;45.532;5.290;2023-03-04T14:34:25;91.22;;;47.00;;
24325;SDS011;12448;45.532;5.290;2023-03-04T14:36:59;85.28;;;44.55;;
24325;SDS011;12448;45.532;5.290;2023-03-04T14:39:26;73.28;;;41.22;;
24325;SDS011;12448;45.532;5.290;2023-03-04T14:41:54;87.57;;;45.22;;
24325;SDS011;12448;45.532;5.290;2023-03-04T14:44:32;80.10;;;43.90;;
24325;SDS011;12448;45.532;5.290;2023-03-04T14:47:10;82.60;;;44.75;;
24325;SDS011;12448;45.532;5.290;2023-03-04T14:49:46;82.63;;;42.97;;
24325;SDS011;12448;45.532;5.290;2023-03-04T14:52:32;78.85;;;42.83;;
24325;SDS011;12448;45.532;5.290;2023-03-04T14:57:48;80.90;;;42.67;;
24325;SDS011;12448;45.532;5.290;2023-03-04T15:02:54;87.22;;;44.72;;
24325;SDS011;12448;45.532;5.290;2023-03-04T15:05:27;84.38;;;44.95;;
24325;SDS011;12448;45.532;5.290;2023-03-04T15:08:01;81.78;;;43.40;;
24325;SDS011;12448;45.532;5.290;2023-03-04T15:10:51;81.72;;;43.30;;
24325;SDS011;12448;45.532;5.290;2023-03-04T15:13:19;87.00;;;44.30;;
24325;SDS011;12448;45.532;5.290;2023-03-04T15:16:09;90.85;;;45.30;;
24325;SDS011;12448;45.532;5.290;2023-03-04T15:18:36;76.63;;;41.85;;
24325;SDS011;12448;45.532;5.290;2023-03-04T15:21:04;80.22;;;45.45;;
24325;SDS011;12448;45.532;5.290;2023-03-04T15:23:50;85.75;;;46.00;;
24325;SDS011;12448;45.532;5.290;2023-03-04T15:26:15;74.53;;;41.97;;
24325;SDS011;12448;45.532;5.290;2023-03-04T15:28:41;81.57;;;42.28;;
24325;SDS011;12448;45.532;5.290;2023-03-04T15:31:17;77.68;;;42.45;;
24325;SDS011;12448;45.532;5.290;2023-03-04T15:33:45;79.10;;;42.13;;
24325;SDS011;12448;45.532;5.290;2023-03-04T15:36:13;81.03;;;42.55;;
24325;SDS011;12448;45.532;5.290;2023-03-04T15:38:45;79.07;;;42.10;;
24325;SDS011;12448;45.532;5.290;2023-03-04T15:41:14;84.88;;;40.70;;
24325;SDS011;12448;45.532;5.290;2023-03-04T15:43:46;76.00;;;40.80;;
24325;SDS011;12448;45.532;5.290;2023-03-04T15:46:12;83.47;;;43.13;;
24325;SDS011;12448;45.532;5.290;2023-03-04T15:48:37;88.18;;;46.17;;
24325;SDS011;12448;45.532;5.290;2023-03-04T15:51:03;83.10;;;42.20;;
24325;SDS011;12448;45.532;5.290;2023-03-04T15:53:32;85.88;;;44.38;;
24325;SDS011;12448;45.532;5.290;2023-03-04T15:56:13;90.13;;;48.88;;
24325;SDS011;12448;45.532;5.290;2023-03-04T15:58:41;79.22;;;42.90;;
24325;SDS011;12448;45.532;5.290;2023-03-04T16:01:08;85.07;;;43.90;;
24325;SDS011;12448;45.532;5.290;2023-03-04T16:03:39;81.68;;;40.05;;
24325;SDS011;12448;45.532;5.290;2023-03-04T16:06:07;80.03;;;43.30;;
24325;SDS011;12448;45.532;5.290;2023-03-04T16:08:38;72.78;;;39.33;;
24325;SDS011;12448;45.532;5.290;2023-03-04T16:11:08;77.85;;;40.88;;
24325;SDS011;12448;45.532;5.290;2023-03-04T16:13:38;76.95;;;38.85;;
24325;SDS011;12448;45.532;5.290;2023-03-04T16:16:04;71.82;;;39.97;;
24325;SDS011;12448;45.532;5.290;2023-03-04T16:18:29;78.85;;;40.70;;
24325;SDS011;12448;45.532;5.290;2023-03-04T16:20:55;70.90;;;35.92;;
24325;SDS011;12448;45.532;5.290;2023-03-04T16:23:22;70.60;;;38.65;;
24325;SDS011;12448;45.532;5.290;2023-03-04T16:25:49;72.93;;;37.03;;
24325;SDS011;12448;45.532;5.290;2023-03-04T16:28:19;71.53;;;36.90;;